sensor_id;sensor_type;location;lat;lon;timestamp;pressure;altitude;pressure_sealevel;temperature;humidity
46412;BME280;32113;42.012;24.870;2023-04-09T00:01:07;99392.19;;;10.86;68.63
46412;BME280;32113;42.012;24.870;2023-04-09T00:03:33;99399.06;;;10.74;69.54
46412;BME280;32113;42.012;24.870;2023-04-09T00:05:59;99394.81;;;10.73;69.45
46412;BME280;32113;42.012;24.870;2023-04-09T00:08:25;99397.34;;;10.78;69.28
46412;BME280;32113;42.012;24.870;2023-04-09T00:10:51;99401.59;;;10.81;69.51
46412;BME280;32113;42.012;24.870;2023-04-09T00:13:17;99399.84;;;10.87;69.35
46412;BME280;32113;42.012;24.870;2023-04-09T00:15:46;99398.97;;;10.95;68.89
46412;BME280;32113;42.012;24.870;2023-04-09T00:18:13;99397.22;;;10.98;68.15
46412;BME280;32113;42.012;24.870;2023-04-09T00:20:38;99395.47;;;11.02;68.64
46412;BME280;32113;42.012;24.870;2023-04-09T00:23:04;99398.91;;;11.02;68.47
46412;BME280;32113;42.012;24.870;2023-04-09T00:25:30;99401.47;;;11.04;68.30
46412;BME280;32113;42.012;24.870;2023-04-09T00:27:55;99405.69;;;11.11;67.71
46412;BME280;32113;42.012;24.870;2023-04-09T00:30:21;99402.22;;;11.17;67.63
46412;BME280;32113;42.012;24.870;2023-04-09T00:32:47;99403.16;;;11.08;67.73
46412;BME280;32113;42.012;24.870;2023-04-09T00:35:12;99403.19;;;11.03;68.03
46412;BME280;32113;42.012;24.870;2023-04-09T00:37:38;99407.47;;;11.01;68.13
46412;BME280;32113;42.012;24.870;2023-04-09T00:40:04;99402.41;;;10.94;68.38
46412;BME280;32113;42.012;24.870;2023-04-09T00:42:31;99404.09;;;10.98;68.34
46412;BME280;32113;42.012;24.870;2023-04-09T00:44:57;99410.06;;;11.00;68.07
46412;BME280;32113;42.012;24.870;2023-04-09T00:47:22;99401.47;;;11.01;68.60
46412;BME280;32113;42.012;24.870;2023-04-09T00:49:47;99412.63;;;11.00;68.58
46412;BME280;32113;42.012;24.870;2023-04-09T00:52:13;99413.44;;;11.02;68.76
46412;BME280;32113;42.012;24.870;2023-04-09T00:54:38;99412.63;;;10.98;68.58
46412;BME280;32113;42.012;24.870;2023-04-09T00:57:04;99410.88;;;11.03;68.67
46412;BME280;32113;42.012;24.870;2023-04-09T00:59:30;99407.50;;;11.00;68.72
46412;BME280;32113;42.012;24.870;2023-04-09T01:01:55;99404.88;;;11.08;68.22
46412;BME280;32113;42.012;24.870;2023-04-09T01:04:22;99412.56;;;11.11;67.79
46412;BME280;32113;42.012;24.870;2023-04-09T01:06:54;99406.63;;;11.02;68.23
46412;BME280;32113;42.012;24.870;2023-04-09T01:09:40;99411.72;;;11.07;68.39
46412;BME280;32113;42.012;24.870;2023-04-09T01:15:05;99413.44;;;11.08;67.98
46412;BME280;32113;42.012;24.870;2023-04-09T01:20:33;99410.00;;;11.06;67.77
46412;BME280;32113;42.012;24.870;2023-04-09T01:23:18;99422.00;;;11.07;67.75
46412;BME280;32113;42.012;24.870;2023-04-09T01:28:45;99411.75;;;10.99;67.35
46412;BME280;32113;42.012;24.870;2023-04-09T01:31:13;99411.81;;;10.91;67.98
46412;BME280;32113;42.012;24.870;2023-04-09T01:33:43;99414.38;;;10.95;67.90
46412;BME280;32113;42.012;24.870;2023-04-09T01:36:09;99416.94;;;10.95;68.27
46412;BME280;32113;42.012;24.870;2023-04-09T01:38:36;99409.19;;;10.99;68.14
46412;BME280;32113;42.012;24.870;2023-04-09T01:41:04;99410.06;;;10.98;67.90
46412;BME280;32113;42.012;24.870;2023-04-09T01:43:31;99407.53;;;10.95;67.84
46412;BME280;32113;42.012;24.870;2023-04-09T01:45:59;99414.38;;;10.96;67.67
46412;BME280;32113;42.012;24.870;2023-04-09T01:48:26;99423.78;;;10.94;67.51
46412;BME280;32113;42.012;24.870;2023-04-09T01:50:53;99422.06;;;10.90;68.09
46412;BME280;32113;42.012;24.870;2023-04-09T01:53:18;99411.84;;;10.88;67.85
46412;BME280;32113;42.012;24.870;2023-04-09T01:55:44;99420.38;;;10.89;68.50
46412;BME280;32113;42.012;24.870;2023-04-09T01:58:10;99418.63;;;10.93;68.26
46412;BME280;32113;42.012;24.870;2023-04-09T02:00:40;99423.78;;;10.93;67.85
46412;BME280;32113;42.012;24.870;2023-04-09T02:03:17;99426.31;;;10.99;67.51
46412;BME280;32113;42.012;24.870;2023-04-09T02:05:57;99421.25;;;10.91;67.61
46412;BME280;32113;42.012;24.870;2023-04-09T02:08:24;99423.81;;;10.91;67.97
46412;BME280;32113;42.012;24.870;2023-04-09T02:10:53;99419.56;;;10.81;68.08
46412;BME280;32113;42.012;24.870;2023-04-09T02:13:21;99420.44;;;10.81;68.19
46412;BME280;32113;42.012;24.870;2023-04-09T02:15:48;99422.13;;;10.85;68.23
46412;BME280;32113;42.012;24.870;2023-04-09T02:18:25;99423.00;;;10.83;68.33
46412;BME280;32113;42.012;24.870;2023-04-09T02:20:58;99429.81;;;10.87;68.21
46412;BME280;32113;42.012;24.870;2023-04-09T02:23:24;99424.66;;;10.91;67.69
46412;BME280;32113;42.012;24.870;2023-04-09T02:25:50;99421.25;;;10.88;67.93
46412;BME280;32113;42.012;24.870;2023-04-09T02:28:17;99427.22;;;10.90;67.84
46412;BME280;32113;42.012;24.870;2023-04-09T02:30:42;99426.34;;;10.93;67.72
46412;BME280;32113;42.012;24.870;2023-04-09T02:33:08;99423.81;;;10.89;67.83
46412;BME280;32113;42.012;24.870;2023-04-09T02:35:34;99427.25;;;10.84;68.47
46412;BME280;32113;42.012;24.870;2023-04-09T02:37:59;99429.81;;;10.87;68.38
46412;BME280;32113;42.012;24.870;2023-04-09T02:40:25;99428.09;;;10.90;68.00
46412;BME280;32113;42.012;24.870;2023-04-09T02:42:51;99435.78;;;10.92;68.18
46412;BME280;32113;42.012;24.870;2023-04-09T02:45:17;99431.47;;;10.94;68.39
46412;BME280;32113;42.012;24.870;2023-04-09T02:47:42;99430.66;;;10.90;68.49
46412;BME280;32113;42.012;24.870;2023-04-09T02:50:08;99433.22;;;10.90;67.79
46412;BME280;32113;42.012;24.870;2023-04-09T02:52:33;99427.25;;;10.87;68.32
46412;BME280;32113;42.012;24.870;2023-04-09T02:54:59;99429.78;;;10.90;68.24
46412;BME280;32113;42.012;24.870;2023-04-09T02:57:24;99439.22;;;10.88;68.43
46412;BME280;32113;42.012;24.870;2023-04-09T02:59:50;99437.47;;;10.90;68.43
46412;BME280;32113;42.012;24.870;2023-04-09T03:02:15;99437.47;;;10.93;68.57
46412;BME280;32113;42.012;24.870;2023-04-09T03:04:40;99440.88;;;10.97;68.23
46412;BME280;32113;42.012;24.870;2023-04-09T03:07:06;99428.91;;;10.97;68.54
46412;BME280;32113;42.012;24.870;2023-04-09T03:09:32;99429.72;;;11.02;68.54
46412;BME280;32113;42.012;24.870;2023-04-09T03:11:57;99431.41;;;11.03;67.96
46412;BME280;32113;42.012;24.870;2023-04-09T03:14:23;99429.72;;;11.01;68.45
46412;BME280;32113;42.012;24.870;2023-04-09T03:16:49;99431.41;;;11.08;68.06
46412;BME280;32113;42.012;24.870;2023-04-09T03:19:14;99430.53;;;11.12;67.76
46412;BME280;32113;42.012;24.870;2023-04-09T03:21:39;99424.53;;;11.10;67.64
46412;BME280;32113;42.012;24.870;2023-04-09T03:24:05;99426.28;;;11.10;67.71
46412;BME280;32113;42.012;24.870;2023-04-09T03:26:31;99422.81;;;11.12;67.68
46412;BME280;32113;42.012;24.870;2023-04-09T03:29:01;99432.22;;;11.10;67.27
46412;BME280;32113;42.012;24.870;2023-04-09T03:31:26;99432.28;;;11.06;66.65
46412;BME280;32113;42.012;24.870;2023-04-09T03:33:52;99444.28;;;11.00;66.65
46412;BME280;32113;42.012;24.870;2023-04-09T03:36:17;99442.63;;;10.93;66.88
46412;BME280;32113;42.012;24.870;2023-04-09T03:38:43;99438.34;;;10.94;66.99
46412;BME280;32113;42.012;24.870;2023-04-09T03:41:08;99442.66;;;10.88;67.10
46412;BME280;32113;42.012;24.870;2023-04-09T03:43:33;99439.19;;;10.94;66.79
46412;BME280;32113;42.012;24.870;2023-04-09T03:45:59;99441.78;;;10.89;67.32
46412;BME280;32113;42.012;24.870;2023-04-09T03:48:24;99439.22;;;10.88;67.27
46412;BME280;32113;42.012;24.870;2023-04-09T03:50:50;99438.34;;;10.87;66.99
46412;BME280;32113;42.012;24.870;2023-04-09T03:53:15;99434.97;;;10.87;67.01
46412;BME280;32113;42.012;24.870;2023-04-09T03:55:41;99438.41;;;10.83;67.56
46412;BME280;32113;42.012;24.870;2023-04-09T03:58:06;99449.50;;;10.88;67.33
46412;BME280;32113;42.012;24.870;2023-04-09T04:00:31;99446.94;;;10.86;67.12
46412;BME280;32113;42.012;24.870;2023-04-09T04:02:57;99451.22;;;10.84;67.54
46412;BME280;32113;42.012;24.870;2023-04-09T04:05:23;99458.97;;;10.76;67.82
46412;BME280;32113;42.012;24.870;2023-04-09T04:07:50;99446.97;;;10.75;67.90
46412;BME280;32113;42.012;24.870;2023-04-09T04:10:16;99452.97;;;10.79;68.12
46412;BME280;32113;42.012;24.870;2023-04-09T04:12:41;99458.09;;;10.74;67.87
46412;BME280;32113;42.012;24.870;2023-04-09T04:15:07;99452.97;;;10.71;68.21
46412;BME280;32113;42.012;24.870;2023-04-09T04:17:32;99455.53;;;10.71;68.08
46412;BME280;32113;42.012;24.870;2023-04-09T04:19:58;99459.81;;;10.75;68.33
46412;BME280;32113;42.012;24.870;2023-04-09T04:22:23;99455.53;;;10.77;68.13
46412;BME280;32113;42.012;24.870;2023-04-09T04:24:48;99460.63;;;10.84;68.13
46412;BME280;32113;42.012;24.870;2023-04-09T04:27:14;99460.63;;;10.82;67.69
46412;BME280;32113;42.012;24.870;2023-04-09T04:29:39;99458.06;;;10.82;67.99
46412;BME280;32113;42.012;24.870;2023-04-09T04:32:05;99467.50;;;10.77;68.50
46412;BME280;32113;42.012;24.870;2023-04-09T04:34:31;99469.19;;;10.84;67.59
46412;BME280;32113;42.012;24.870;2023-04-09T04:36:56;99467.41;;;10.93;67.18
46412;BME280;32113;42.012;24.870;2023-04-09T04:39:21;99472.59;;;10.88;67.71
46412;BME280;32113;42.012;24.870;2023-04-09T04:41:47;99471.72;;;10.89;67.49
46412;BME280;32113;42.012;24.870;2023-04-09T04:44:12;99472.59;;;10.91;67.14
46412;BME280;32113;42.012;24.870;2023-04-09T04:46:38;99465.72;;;10.93;67.13
46412;BME280;32113;42.012;24.870;2023-04-09T04:49:03;99466.59;;;10.94;67.47
46412;BME280;32113;42.012;24.870;2023-04-09T04:51:31;99458.84;;;10.98;66.79
46412;BME280;32113;42.012;24.870;2023-04-09T04:53:56;99469.06;;;11.06;66.58
46412;BME280;32113;42.012;24.870;2023-04-09T04:56:22;99470.75;;;11.12;66.89
46412;BME280;32113;42.012;24.870;2023-04-09T04:58:47;99463.91;;;11.11;66.74
46412;BME280;32113;42.012;24.870;2023-04-09T05:01:13;99457.09;;;11.02;67.20
46412;BME280;32113;42.012;24.870;2023-04-09T05:03:38;99461.41;;;11.03;66.77
46412;BME280;32113;42.012;24.870;2023-04-09T05:06:03;99470.75;;;11.12;66.94
46412;BME280;32113;42.012;24.870;2023-04-09T05:08:29;99475.88;;;11.13;66.31
46412;BME280;32113;42.012;24.870;2023-04-09T05:10:54;99469.88;;;11.16;66.11
46412;BME280;32113;42.012;24.870;2023-04-09T05:13:20;99475.00;;;11.19;66.68
46412;BME280;32113;42.012;24.870;2023-04-09T05:15:46;99469.00;;;11.17;67.05
46412;BME280;32113;42.012;24.870;2023-04-09T05:18:11;99474.16;;;11.17;66.92
46412;BME280;32113;42.012;24.870;2023-04-09T05:20:37;99475.84;;;11.21;67.29
46412;BME280;32113;42.012;24.870;2023-04-09T05:23:02;99479.25;;;11.22;67.28
46412;BME280;32113;42.012;24.870;2023-04-09T05:25:27;99475.84;;;11.21;67.02
46412;BME280;32113;42.012;24.870;2023-04-09T05:27:53;99479.28;;;11.15;67.01
46412;BME280;32113;42.012;24.870;2023-04-09T05:30:18;99478.41;;;11.21;66.98
46412;BME280;32113;42.012;24.870;2023-04-09T05:32:44;99467.25;;;11.21;66.80
46412;BME280;32113;42.012;24.870;2023-04-09T05:35:09;99473.25;;;11.24;66.78
46412;BME280;32113;42.012;24.870;2023-04-09T05:37:34;99474.97;;;11.25;67.21
46412;BME280;32113;42.012;24.870;2023-04-09T05:40:00;99472.34;;;11.32;66.89
46412;BME280;32113;42.012;24.870;2023-04-09T05:42:25;99483.44;;;11.38;66.64
46412;BME280;32113;42.012;24.870;2023-04-09T05:44:51;99479.13;;;11.42;66.05
46412;BME280;32113;42.012;24.870;2023-04-09T05:47:16;99479.13;;;11.42;66.45
46412;BME280;32113;42.012;24.870;2023-04-09T05:49:41;99490.25;;;11.41;66.20
46412;BME280;32113;42.012;24.870;2023-04-09T05:52:07;99486.88;;;11.36;65.64
46412;BME280;32113;42.012;24.870;2023-04-09T05:54:32;99492.94;;;11.24;66.34
46412;BME280;32113;42.012;24.870;2023-04-09T05:56:58;99481.84;;;11.19;67.15
46412;BME280;32113;42.012;24.870;2023-04-09T05:59:23;99494.66;;;11.23;67.14
46412;BME280;32113;42.012;24.870;2023-04-09T06:01:48;99490.38;;;11.24;66.22
46412;BME280;32113;42.012;24.870;2023-04-09T06:04:14;99491.25;;;11.24;66.75
46412;BME280;32113;42.012;24.870;2023-04-09T06:06:39;99495.50;;;11.28;66.58
46412;BME280;32113;42.012;24.870;2023-04-09T06:09:05;99489.50;;;11.23;66.78
46412;BME280;32113;42.012;24.870;2023-04-09T06:11:31;99497.22;;;11.23;67.03
46412;BME280;32113;42.012;24.870;2023-04-09T06:13:56;99490.38;;;11.28;66.65
46412;BME280;32113;42.012;24.870;2023-04-09T06:16:22;99492.94;;;11.24;66.38
46412;BME280;32113;42.012;24.870;2023-04-09T06:18:47;99495.47;;;11.30;66.87
46412;BME280;32113;42.012;24.870;2023-04-09T06:21:15;99493.72;;;11.37;67.26
46412;BME280;32113;42.012;24.870;2023-04-09T06:23:40;99494.56;;;11.40;66.71
46412;BME280;32113;42.012;24.870;2023-04-09T06:26:06;99493.66;;;11.48;66.07
46412;BME280;32113;42.012;24.870;2023-04-09T06:28:31;99490.19;;;11.53;65.72
46412;BME280;32113;42.012;24.870;2023-04-09T06:30:57;99491.81;;;11.61;65.06
46412;BME280;32113;42.012;24.870;2023-04-09T06:33:23;99491.88;;;11.59;65.56
46412;BME280;32113;42.012;24.870;2023-04-09T06:35:49;99498.72;;;11.60;65.96
46412;BME280;32113;42.012;24.870;2023-04-09T06:38:15;99502.97;;;11.66;65.10
46412;BME280;32113;42.012;24.870;2023-04-09T06:40:40;99504.66;;;11.67;65.73
46412;BME280;32113;42.012;24.870;2023-04-09T06:43:06;99504.59;;;11.73;65.47
46412;BME280;32113;42.012;24.870;2023-04-09T06:45:31;99507.16;;;11.76;65.71
46412;BME280;32113;42.012;24.870;2023-04-09T06:47:58;99508.84;;;11.80;64.91
46412;BME280;32113;42.012;24.870;2023-04-09T06:50:23;99510.53;;;11.80;64.75
46412;BME280;32113;42.012;24.870;2023-04-09T06:52:50;99512.22;;;11.84;64.59
46412;BME280;32113;42.012;24.870;2023-04-09T06:55:15;99514.81;;;11.84;64.36
46412;BME280;32113;42.012;24.870;2023-04-09T06:57:41;99508.78;;;11.87;64.88
46412;BME280;32113;42.012;24.870;2023-04-09T07:00:07;99509.59;;;11.93;64.49
46412;BME280;32113;42.012;24.870;2023-04-09T07:02:33;99507.81;;;12.00;64.23
46412;BME280;32113;42.012;24.870;2023-04-09T07:04:59;99510.34;;;12.09;63.23
46412;BME280;32113;42.012;24.870;2023-04-09T07:07:25;99506.00;;;12.15;63.35
46412;BME280;32113;42.012;24.870;2023-04-09T07:09:51;99499.09;;;12.20;63.71
46412;BME280;32113;42.012;24.870;2023-04-09T07:12:30;99504.13;;;12.32;63.04
46412;BME280;32113;42.012;24.870;2023-04-09T07:14:57;99490.38;;;12.33;62.90
46412;BME280;32113;42.012;24.870;2023-04-09T07:17:23;99499.75;;;12.39;62.33
46412;BME280;32113;42.012;24.870;2023-04-09T07:19:48;99500.59;;;12.41;61.99
46412;BME280;32113;42.012;24.870;2023-04-09T07:22:16;99499.75;;;12.39;63.05
46412;BME280;32113;42.012;24.870;2023-04-09T07:24:41;99506.50;;;12.48;62.00
46412;BME280;32113;42.012;24.870;2023-04-09T07:27:06;99502.16;;;12.53;61.46
46412;BME280;32113;42.012;24.870;2023-04-09T07:29:32;99492.69;;;12.57;60.83
46412;BME280;32113;42.012;24.870;2023-04-09T07:31:57;99496.97;;;12.58;60.58
46412;BME280;32113;42.012;24.870;2023-04-09T07:34:25;99499.50;;;12.63;60.49
46412;BME280;32113;42.012;24.870;2023-04-09T07:36:50;99497.81;;;12.60;60.67
46412;BME280;32113;42.012;24.870;2023-04-09T07:39:16;99495.28;;;12.55;60.48
46412;BME280;32113;42.012;24.870;2023-04-09T07:41:42;99497.09;;;12.48;61.39
46412;BME280;32113;42.012;24.870;2023-04-09T07:44:07;99495.28;;;12.55;61.57
46412;BME280;32113;42.012;24.870;2023-04-09T07:46:33;99490.19;;;12.52;61.06
46412;BME280;32113;42.012;24.870;2023-04-09T07:48:58;99494.38;;;12.59;62.13
46412;BME280;32113;42.012;24.870;2023-04-09T07:51:24;99498.66;;;12.60;62.61
46412;BME280;32113;42.012;24.870;2023-04-09T07:53:50;99501.19;;;12.62;62.17
46412;BME280;32113;42.012;24.870;2023-04-09T07:56:15;99501.19;;;12.64;61.69
46412;BME280;32113;42.012;24.870;2023-04-09T07:58:41;99506.31;;;12.67;60.86
46412;BME280;32113;42.012;24.870;2023-04-09T08:01:06;99504.63;;;12.66;60.91
46412;BME280;32113;42.012;24.870;2023-04-09T08:03:32;99507.19;;;12.66;61.84
46412;BME280;32113;42.012;24.870;2023-04-09T08:05:59;99505.44;;;12.68;61.34
46412;BME280;32113;42.012;24.870;2023-04-09T08:08:25;99504.59;;;12.67;61.62
46412;BME280;32113;42.012;24.870;2023-04-09T08:10:50;99511.44;;;12.70;60.65
46412;BME280;32113;42.012;24.870;2023-04-09T08:13:16;99514.03;;;12.67;60.50
46412;BME280;32113;42.012;24.870;2023-04-09T08:15:41;99513.16;;;12.68;60.66
46412;BME280;32113;42.012;24.870;2023-04-09T08:18:07;99509.66;;;12.73;60.51
46412;BME280;32113;42.012;24.870;2023-04-09T08:20:32;99519.19;;;12.65;61.09
46412;BME280;32113;42.012;24.870;2023-04-09T08:22:57;99522.53;;;12.73;60.43
46412;BME280;32113;42.012;24.870;2023-04-09T08:25:23;99519.16;;;12.70;60.87
46412;BME280;32113;42.012;24.870;2023-04-09T08:27:48;99514.81;;;12.75;61.15
46412;BME280;32113;42.012;24.870;2023-04-09T08:30:14;99522.41;;;12.86;61.50
46412;BME280;32113;42.012;24.870;2023-04-09T08:32:40;99524.97;;;12.86;60.31
46412;BME280;32113;42.012;24.870;2023-04-09T08:35:05;99522.34;;;12.87;60.71
46412;BME280;32113;42.012;24.870;2023-04-09T08:37:31;99521.44;;;12.93;60.76
46412;BME280;32113;42.012;24.870;2023-04-09T08:39:56;99522.41;;;12.86;61.16
46412;BME280;32113;42.012;24.870;2023-04-09T08:42:23;99517.22;;;12.87;61.26
46412;BME280;32113;42.012;24.870;2023-04-09T08:44:49;99515.41;;;12.94;60.69
46412;BME280;32113;42.012;24.870;2023-04-09T08:47:15;99519.63;;;13.03;60.52
46412;BME280;32113;42.012;24.870;2023-04-09T08:49:41;99516.97;;;13.06;60.39
46412;BME280;32113;42.012;24.870;2023-04-09T08:52:06;99523.75;;;13.15;59.24
46412;BME280;32113;42.012;24.870;2023-04-09T08:54:32;99517.63;;;13.22;63.37
46412;BME280;32113;42.012;24.870;2023-04-09T08:56:57;99521.78;;;13.33;60.63
46412;BME280;32113;42.012;24.870;2023-04-09T08:59:23;99510.66;;;13.29;59.16
46412;BME280;32113;42.012;24.870;2023-04-09T09:01:48;99514.13;;;13.28;58.75
46412;BME280;32113;42.012;24.870;2023-04-09T09:04:18;99512.31;;;13.33;58.79
46412;BME280;32113;42.012;24.870;2023-04-09T09:06:44;99511.53;;;13.28;58.51
46412;BME280;32113;42.012;24.870;2023-04-09T09:09:11;99515.81;;;13.31;58.73
46412;BME280;32113;42.012;24.870;2023-04-09T09:11:41;99515.81;;;13.31;58.63
46412;BME280;32113;42.012;24.870;2023-04-09T09:14:09;99508.94;;;13.30;59.26
46412;BME280;32113;42.012;24.870;2023-04-09T09:16:36;99504.63;;;13.30;58.88
46412;BME280;32113;42.012;24.870;2023-04-09T09:19:08;99504.59;;;13.33;58.62
46412;BME280;32113;42.012;24.870;2023-04-09T09:21:34;99500.13;;;13.45;58.36
46412;BME280;32113;42.012;24.870;2023-04-09T09:24:01;99503.44;;;13.56;58.21
46412;BME280;32113;42.012;24.870;2023-04-09T09:26:27;99501.53;;;13.68;57.45
46412;BME280;32113;42.012;24.870;2023-04-09T09:28:54;99492.94;;;13.69;57.67
46412;BME280;32113;42.012;24.870;2023-04-09T09:31:21;99489.25;;;13.82;57.42
46412;BME280;32113;42.012;24.870;2023-04-09T09:33:47;99490.66;;;14.02;57.03
46412;BME280;32113;42.012;24.870;2023-04-09T09:36:14;99487.06;;;14.11;56.63
46412;BME280;32113;42.012;24.870;2023-04-09T09:38:54;99479.94;;;14.24;56.44
46412;BME280;32113;42.012;24.870;2023-04-09T09:41:21;99483.25;;;14.32;54.99
46412;BME280;32113;42.012;24.870;2023-04-09T09:43:47;99476.06;;;14.48;54.61
46412;BME280;32113;42.012;24.870;2023-04-09T09:46:13;99474.16;;;14.58;54.67
46412;BME280;32113;42.012;24.870;2023-04-09T09:48:39;99475.56;;;14.71;53.68
46412;BME280;32113;42.012;24.870;2023-04-09T09:51:10;99473.38;;;14.53;53.10
46412;BME280;32113;42.012;24.870;2023-04-09T09:53:36;99468.19;;;14.53;52.63
46412;BME280;32113;42.012;24.870;2023-04-09T09:56:06;99471.31;;;14.70;53.16
46412;BME280;32113;42.012;24.870;2023-04-09T09:58:43;99463.03;;;14.97;52.76
46412;BME280;32113;42.012;24.870;2023-04-09T10:01:12;99465.78;;;15.29;51.08
46412;BME280;32113;42.012;24.870;2023-04-09T10:03:39;99460.00;;;15.17;50.34
46412;BME280;32113;42.012;24.870;2023-04-09T10:06:05;99459.06;;;15.20;50.24
46412;BME280;32113;42.012;24.870;2023-04-09T10:08:32;99460.28;;;15.43;50.04
46412;BME280;32113;42.012;24.870;2023-04-09T10:11:02;99453.72;;;15.64;48.80
46412;BME280;32113;42.012;24.870;2023-04-09T10:13:33;99446.41;;;15.82;48.08
46412;BME280;32113;42.012;24.870;2023-04-09T10:15:59;99443.22;;;16.05;47.37
46412;BME280;32113;42.012;24.870;2023-04-09T10:18:26;99443.91;;;16.12;45.46
46412;BME280;32113;42.012;24.870;2023-04-09T10:21:00;99439.38;;;16.20;46.10
46412;BME280;32113;42.012;24.870;2023-04-09T10:23:37;99435.75;;;16.27;46.80
46412;BME280;32113;42.012;24.870;2023-04-09T10:26:04;99436.63;;;16.26;46.61
46412;BME280;32113;42.012;24.870;2023-04-09T10:28:30;99432.13;;;16.33;47.16
46412;BME280;32113;42.012;24.870;2023-04-09T10:30:57;99417.81;;;16.51;47.67
46412;BME280;32113;42.012;24.870;2023-04-09T10:33:24;99417.56;;;16.61;46.70
46412;BME280;32113;42.012;24.870;2023-04-09T10:35:54;99412.69;;;16.78;46.15
46412;BME280;32113;42.012;24.870;2023-04-09T10:38:37;99414.53;;;16.75;43.56
46412;BME280;32113;42.012;24.870;2023-04-09T10:41:20;99413.50;;;16.80;42.74
46412;BME280;32113;42.012;24.870;2023-04-09T10:43:47;99405.69;;;16.82;42.75
46412;BME280;32113;42.012;24.870;2023-04-09T10:46:29;99406.94;;;16.97;43.15
46412;BME280;32113;42.012;24.870;2023-04-09T10:49:11;99397.09;;;17.10;43.26
46412;BME280;32113;42.012;24.870;2023-04-09T10:51:40;99393.34;;;17.19;42.22
46412;BME280;32113;42.012;24.870;2023-04-09T10:59:31;99388.56;;;17.33;39.36
46412;BME280;32113;42.012;24.870;2023-04-09T11:01:57;99382.69;;;17.28;38.62
46412;BME280;32113;42.012;24.870;2023-04-09T11:05:17;99382.81;;;17.24;38.67
46412;BME280;32113;42.012;24.870;2023-04-09T11:07:14;99377.44;;;17.30;39.08
46412;BME280;32113;42.012;24.870;2023-04-09T11:09:41;99368.72;;;17.32;39.23
46412;BME280;32113;42.012;24.870;2023-04-09T11:12:07;99363.91;;;17.47;37.35
46412;BME280;32113;42.012;24.870;2023-04-09T11:14:35;99353.31;;;17.53;41.66
46412;BME280;32113;42.012;24.870;2023-04-09T11:17:02;99354.31;;;17.49;37.45
46412;BME280;32113;42.012;24.870;2023-04-09T11:19:27;99348.81;;;17.58;37.34
46412;BME280;32113;42.012;24.870;2023-04-09T11:21:53;99336.38;;;17.68;36.76
46412;BME280;32113;42.012;24.870;2023-04-09T11:24:18;99332.50;;;17.80;36.28
46412;BME280;32113;42.012;24.870;2023-04-09T11:26:43;99331.94;;;17.96;36.65
46412;BME280;32113;42.012;24.870;2023-04-09T11:29:10;99329.97;;;18.03;34.93
46412;BME280;32113;42.012;24.870;2023-04-09T11:31:35;99322.56;;;17.92;34.45
46412;BME280;32113;42.012;24.870;2023-04-09T11:34:02;99322.41;;;17.96;35.43
46412;BME280;32113;42.012;24.870;2023-04-09T11:36:27;99324.47;;;18.12;35.87
46412;BME280;32113;42.012;24.870;2023-04-09T11:38:54;99326.91;;;18.17;33.74
46412;BME280;32113;42.012;24.870;2023-04-09T11:41:32;99323.56;;;18.13;34.17
46412;BME280;32113;42.012;24.870;2023-04-09T11:43:58;99313.63;;;18.24;34.67
46412;BME280;32113;42.012;24.870;2023-04-09T11:46:25;99309.31;;;17.99;34.68
46412;BME280;32113;42.012;24.870;2023-04-09T11:48:52;99312.03;;;17.47;34.47
46412;BME280;32113;42.012;24.870;2023-04-09T11:51:18;99305.72;;;17.54;34.78
46412;BME280;32113;42.012;24.870;2023-04-09T11:53:43;99302.03;;;17.62;33.61
46412;BME280;32113;42.012;24.870;2023-04-09T11:56:09;99296.88;;;17.60;33.51
46412;BME280;32113;42.012;24.870;2023-04-09T11:58:35;99294.28;;;17.60;34.12
46412;BME280;32113;42.012;24.870;2023-04-09T12:01:01;99289.97;;;17.60;33.55
46412;BME280;32113;42.012;24.870;2023-04-09T12:03:29;99289.16;;;17.58;33.01
46412;BME280;32113;42.012;24.870;2023-04-09T12:05:54;99280.53;;;17.58;32.56
46412;BME280;32113;42.012;24.870;2023-04-09T12:08:23;99289.03;;;17.62;33.53
46412;BME280;32113;42.012;24.870;2023-04-09T12:10:49;99288.41;;;17.55;33.74
46412;BME280;32113;42.012;24.870;2023-04-09T12:13:15;99285.72;;;17.58;32.56
46412;BME280;32113;42.012;24.870;2023-04-09T12:15:41;99275.72;;;17.47;33.47
46412;BME280;32113;42.012;24.870;2023-04-09T12:18:09;99276.59;;;17.48;33.46
46412;BME280;32113;42.012;24.870;2023-04-09T12:20:39;99280.81;;;17.50;32.52
46412;BME280;32113;42.012;24.870;2023-04-09T12:23:06;99283.91;;;17.60;32.39
46412;BME280;32113;42.012;24.870;2023-04-09T12:25:36;99274.53;;;17.56;32.50
46412;BME280;32113;42.012;24.870;2023-04-09T12:28:02;99266.44;;;17.65;32.65
46412;BME280;32113;42.012;24.870;2023-04-09T12:30:28;99279.88;;;17.77;33.20
46412;BME280;32113;42.012;24.870;2023-04-09T12:32:54;99273.94;;;17.73;32.17
46412;BME280;32113;42.012;24.870;2023-04-09T12:35:21;99267.09;;;17.70;29.97
46412;BME280;32113;42.012;24.870;2023-04-09T12:37:47;99266.38;;;17.67;31.03
46412;BME280;32113;42.012;24.870;2023-04-09T12:40:13;99259.03;;;17.54;32.28
46412;BME280;32113;42.012;24.870;2023-04-09T12:42:43;99259.88;;;17.55;31.27
46412;BME280;32113;42.012;24.870;2023-04-09T12:45:09;99249.78;;;17.47;31.00
46412;BME280;32113;42.012;24.870;2023-04-09T12:47:35;99252.59;;;17.41;31.87
46412;BME280;32113;42.012;24.870;2023-04-09T12:50:02;99248.25;;;17.41;31.93
46412;BME280;32113;42.012;24.870;2023-04-09T12:52:28;99254.88;;;17.50;31.66
46412;BME280;32113;42.012;24.870;2023-04-09T12:54:54;99253.84;;;17.54;31.28
46412;BME280;32113;42.012;24.870;2023-04-09T12:57:19;99257.19;;;17.58;30.88
46412;BME280;32113;42.012;24.870;2023-04-09T12:59:45;99238.75;;;17.66;30.93
46412;BME280;32113;42.012;24.870;2023-04-09T13:02:10;99244.31;;;17.79;31.77